createdAt,value
2018-08-06T00:01:09.990Z,98023.06
2018-08-06T00:03:39.139Z,98022.20
2018-08-06T00:06:08.354Z,98024.27
2018-08-06T00:08:37.407Z,98020.98
2018-08-06T00:11:06.660Z,98017.83
2018-08-06T00:13:35.890Z,98018.08
2018-08-06T00:16:05.174Z,98020.98
2018-08-06T00:18:34.006Z,98022.22
2018-08-06T00:21:03.203Z,98017.08
2018-08-06T00:23:32.359Z,98016.45
2018-08-06T00:26:01.494Z,98015.36
2018-08-06T00:28:30.619Z,98015.98
2018-08-06T00:30:59.750Z,98016.58
2018-08-06T00:33:28.941Z,98017.70
2018-08-06T00:35:57.989Z,98023.31
2018-08-06T00:38:27.070Z,98022.53
2018-08-06T00:40:56.222Z,98023.89
2018-08-06T00:43:25.442Z,98029.99
2018-08-06T00:45:54.550Z,98024.77
2018-08-06T00:48:23.378Z,98023.27
2018-08-06T00:50:52.321Z,98024.73
2018-08-06T00:53:21.604Z,98027.89
2018-08-06T00:55:50.942Z,98026.90
2018-08-06T00:58:20.085Z,98023.73
2018-08-06T01:00:49.030Z,98021.70
2018-08-06T01:03:18.215Z,98026.18
2018-08-06T01:05:47.277Z,98020.08
2018-08-06T01:08:16.479Z,98019.00
2018-08-06T01:10:45.765Z,98022.52
2018-08-06T01:13:14.966Z,98031.98
2018-08-06T01:15:44.264Z,98024.81
2018-08-06T01:18:13.536Z,98019.82
2018-08-06T01:20:42.765Z,98022.86
2018-08-06T01:23:12.109Z,98023.83
2018-08-06T01:25:41.175Z,98023.05
2018-08-06T01:28:10.347Z,98021.88
2018-08-06T01:30:39.414Z,98020.41
2018-08-06T01:33:08.546Z,98024.64
2018-08-06T01:35:37.642Z,98025.29
2018-08-06T01:38:06.886Z,98028.31
2018-08-06T01:40:35.974Z,98027.61
2018-08-06T01:43:04.870Z,98028.20
2018-08-06T01:45:33.901Z,98021.14
2018-08-06T01:48:03.564Z,98022.86
2018-08-06T01:50:32.675Z,98020.16
2018-08-06T01:53:01.944Z,98022.42
2018-08-06T01:55:31.067Z,98029.36
2018-08-06T01:58:00.153Z,98024.74
2018-08-06T02:00:29.462Z,98026.56
2018-08-06T02:02:58.728Z,98023.58
2018-08-06T02:05:27.878Z,98022.58
2018-08-06T02:07:57.028Z,98017.75
2018-08-06T02:10:26.055Z,98018.58
2018-08-06T02:12:55.281Z,98021.87
2018-08-06T02:15:24.475Z,98025.05
2018-08-06T02:17:53.482Z,98026.95
2018-08-06T02:20:22.641Z,98025.70
2018-08-06T02:22:51.445Z,98021.34
2018-08-06T02:25:20.367Z,98025.11
2018-08-06T02:27:49.689Z,98029.44
2018-08-06T02:30:18.400Z,98022.19
2018-08-06T02:32:47.353Z,98031.50
2018-08-06T02:35:17.021Z,98030.63
2018-08-06T02:37:46.072Z,98025.02
2018-08-06T02:40:17.878Z,98022.94
2018-08-06T02:42:47.432Z,98029.33
2018-08-06T02:45:17.038Z,98020.11
2018-08-06T02:47:46.273Z,98019.09
2018-08-06T02:50:15.711Z,98021.72
2018-08-06T02:52:45.346Z,98022.98
2018-08-06T02:55:15.998Z,98021.95
2018-08-06T02:57:45.167Z,98032.76
2018-08-06T03:00:16.094Z,98029.81
2018-08-06T03:02:46.067Z,98040.70
2018-08-06T03:05:16.330Z,98027.55
2018-08-06T03:07:45.630Z,98039.78
2018-08-06T03:10:14.942Z,98033.30
2018-08-06T03:12:45.057Z,98032.03
2018-08-06T03:15:14.307Z,98034.22
2018-08-06T03:17:43.395Z,98034.58
2018-08-06T03:20:13.448Z,98032.59
2018-08-06T03:22:42.335Z,98033.93
2018-08-06T03:25:13.330Z,98034.97
2018-08-06T03:27:43.108Z,98035.03
2018-08-06T03:30:14.674Z,98037.23
2018-08-06T03:32:44.602Z,98045.64
2018-08-06T03:35:13.558Z,98046.80
2018-08-06T03:37:42.855Z,98049.05
2018-08-06T03:40:12.263Z,98044.84
2018-08-06T03:42:41.556Z,98048.78
2018-08-06T03:45:11.874Z,98049.77
2018-08-06T03:47:41.891Z,98048.14
2018-08-06T03:50:12.423Z,98054.17
2018-08-06T03:52:41.735Z,98054.39
2018-08-06T03:55:11.426Z,98055.91
2018-08-06T03:57:40.902Z,98056.06
2018-08-06T04:00:11.814Z,98054.91
2018-08-06T04:02:41.622Z,98047.86
2018-08-06T04:05:12.194Z,98048.33
2018-08-06T04:07:41.302Z,98050.84
2018-08-06T04:10:12.099Z,98054.38
2018-08-06T04:12:41.637Z,98055.59
2018-08-06T04:15:11.285Z,98058.11
2018-08-06T04:17:40.971Z,98059.01
2018-08-06T04:20:11.281Z,98055.33
2018-08-06T04:22:41.191Z,98060.03
2018-08-06T04:25:10.334Z,98061.99
2018-08-06T04:27:39.547Z,98066.51
2018-08-06T04:30:12.256Z,98067.80
2018-08-06T04:32:41.747Z,98067.45
2018-08-06T04:35:10.870Z,98074.16
2018-08-06T04:37:40.247Z,98070.80
2018-08-06T04:40:10.908Z,98078.78
2018-08-06T04:42:40.081Z,98072.87
2018-08-06T04:45:09.899Z,98073.84
2018-08-06T04:47:39.924Z,98076.16
2018-08-06T04:50:10.746Z,98083.74
2018-08-06T04:52:40.058Z,98090.67
2018-08-06T04:55:11.491Z,98089.87
2018-08-06T04:57:40.780Z,98090.73
2018-08-06T05:00:12.028Z,98093.77
2018-08-06T05:02:41.496Z,98092.36
2018-08-06T05:05:11.502Z,98098.45
2018-08-06T05:07:40.266Z,98096.16
2018-08-06T05:10:09.523Z,98110.50
2018-08-06T05:12:38.696Z,98104.66
2018-08-06T05:15:08.019Z,98107.81
2018-08-06T05:17:37.179Z,98106.98
2018-08-06T05:20:06.621Z,98114.89
2018-08-06T05:22:35.856Z,98117.20
2018-08-06T05:25:05.186Z,98121.18
2018-08-06T05:27:34.375Z,98126.31
2018-08-06T05:30:03.474Z,98121.64
2018-08-06T05:32:32.446Z,98127.98
2018-08-06T05:35:01.458Z,98130.13
2018-08-06T05:37:30.751Z,98129.98
2018-08-06T05:39:59.606Z,98124.95
2018-08-06T05:42:28.723Z,98129.69
2018-08-06T05:44:58.106Z,98130.00
2018-08-06T05:47:27.242Z,98124.14
2018-08-06T05:49:56.222Z,98124.13
2018-08-06T05:52:25.122Z,98125.44
2018-08-06T05:54:54.554Z,98129.66
2018-08-06T05:57:23.812Z,98123.13
2018-08-06T05:59:52.728Z,98120.39
2018-08-06T06:02:22.100Z,98123.02
2018-08-06T06:04:51.251Z,98125.36
2018-08-06T06:07:20.251Z,98123.57
2018-08-06T06:09:49.545Z,98123.84
2018-08-06T06:12:18.784Z,98127.79
2018-08-06T06:14:48.031Z,98128.57
2018-08-06T06:17:17.184Z,98128.77
2018-08-06T06:19:46.202Z,98130.06
2018-08-06T06:22:15.364Z,98130.73
2018-08-06T06:24:44.521Z,98123.20
2018-08-06T06:27:13.625Z,98125.55
2018-08-06T06:29:42.876Z,98129.45
2018-08-06T06:32:12.152Z,98123.63
2018-08-06T06:34:41.448Z,98122.41
2018-08-06T06:37:10.334Z,98129.11
2018-08-06T06:39:39.330Z,98119.69
2018-08-06T06:42:08.499Z,98126.06
2018-08-06T06:44:37.705Z,98120.26
2018-08-06T06:47:06.667Z,98114.09
2018-08-06T06:49:35.511Z,98118.81
2018-08-06T06:52:04.871Z,98119.61
2018-08-06T06:54:34.069Z,98119.46
2018-08-06T06:57:03.324Z,98121.78
2018-08-06T06:59:32.194Z,98120.20
2018-08-06T07:02:01.112Z,98116.73
2018-08-06T07:04:29.959Z,98113.72
2018-08-06T07:06:59.222Z,98112.23
2018-08-06T07:09:28.310Z,98117.08
2018-08-06T07:11:57.358Z,98120.94
2018-08-06T07:14:26.630Z,98120.94
2018-08-06T07:16:55.847Z,98126.67
2018-08-06T07:19:25.076Z,98124.62
2018-08-06T07:21:54.198Z,98129.46
2018-08-06T07:24:23.130Z,98136.70
2018-08-06T07:26:52.291Z,98133.02
2018-08-06T07:29:21.434Z,98129.31
2018-08-06T07:31:50.270Z,98127.23
2018-08-06T07:34:19.546Z,98134.77
2018-08-06T07:36:48.423Z,98132.16
2018-08-06T07:39:17.589Z,98134.30
2018-08-06T07:41:46.644Z,98139.19
2018-08-06T07:44:15.779Z,98131.97
2018-08-06T07:46:45.019Z,98134.74
2018-08-06T07:49:14.271Z,98135.29
2018-08-06T07:51:43.501Z,98142.31
2018-08-06T07:54:12.473Z,98134.83
2018-08-06T07:56:41.898Z,98136.81
2018-08-06T07:59:11.207Z,98138.80
2018-08-06T08:01:40.396Z,98136.52
2018-08-06T08:04:09.525Z,98141.49
2018-08-06T08:06:38.760Z,98138.50
2018-08-06T08:09:10.494Z,98138.88
2018-08-06T08:11:39.962Z,98133.52
2018-08-06T08:14:09.310Z,98135.44
2018-08-06T08:16:38.660Z,98135.70
2018-08-06T08:19:07.658Z,98134.73
2018-08-06T08:21:36.814Z,98133.80
2018-08-06T08:24:06.095Z,98129.95
2018-08-06T08:26:35.287Z,98130.37
2018-08-06T08:29:04.514Z,98132.20
2018-08-06T08:31:34.516Z,98126.31
2018-08-06T08:34:03.739Z,98125.66
2018-08-06T08:36:32.772Z,98117.64
2018-08-06T08:39:01.810Z,98129.59
2018-08-06T08:41:31.020Z,98112.82
2018-08-06T08:44:00.138Z,98116.61
2018-08-06T08:46:29.332Z,98117.19
2018-08-06T08:48:58.349Z,98100.38
2018-08-06T08:51:27.360Z,98102.94
2018-08-06T08:53:56.466Z,98105.17
2018-08-06T08:56:26.325Z,98105.02
2018-08-06T08:58:55.606Z,98104.45
2018-08-06T09:01:24.818Z,98107.31
2018-08-06T09:03:53.959Z,98104.55
2018-08-06T09:06:23.258Z,98105.42
2018-08-06T09:08:52.575Z,98108.69
2018-08-06T09:11:21.643Z,98103.38
2018-08-06T09:13:50.754Z,98110.56
2018-08-06T09:16:19.890Z,98107.31
2018-08-06T09:18:48.860Z,98109.77
2018-08-06T09:21:18.188Z,98109.07
2018-08-06T09:23:47.198Z,98105.75
2018-08-06T09:26:16.326Z,98104.16
2018-08-06T09:28:45.638Z,98108.05
2018-08-06T09:31:14.877Z,98109.64
2018-08-06T09:33:43.988Z,98104.88
2018-08-06T09:36:13.120Z,98100.12
2018-08-06T09:38:42.336Z,98108.88
2018-08-06T09:41:11.488Z,98109.47
2018-08-06T09:43:40.343Z,98104.52
2018-08-06T09:46:09.431Z,98111.43
2018-08-06T09:48:38.580Z,98105.48
2018-08-06T09:51:07.892Z,98111.37
2018-08-06T09:53:37.338Z,98110.83
2018-08-06T09:56:06.639Z,98105.34
2018-08-06T09:58:35.875Z,98103.84
2018-08-06T10:01:10.231Z,98097.42
2018-08-06T10:03:39.287Z,98100.74
2018-08-06T10:06:08.394Z,98098.65
2018-08-06T10:08:37.215Z,98086.78
2018-08-06T10:11:06.521Z,98082.34
2018-08-06T10:13:35.543Z,98089.28
2018-08-06T10:16:04.835Z,98088.91
2018-08-06T10:18:34.170Z,98075.37
2018-08-06T10:21:03.465Z,98080.40
2018-08-06T10:23:32.703Z,98070.84
2018-08-06T10:26:01.851Z,98069.92
2018-08-06T10:28:30.838Z,98069.02
2018-08-06T10:30:59.940Z,98064.15
2018-08-06T10:33:29.045Z,98061.72
2018-08-06T10:35:58.335Z,98062.75
2018-08-06T10:38:27.496Z,98066.45
2018-08-06T10:40:56.612Z,98063.47
2018-08-06T10:43:25.765Z,98066.27
2018-08-06T10:45:54.951Z,98061.13
2018-08-06T10:48:24.228Z,98061.58
2018-08-06T10:50:53.646Z,98059.23
2018-08-06T10:53:22.754Z,98051.61
2018-08-06T10:55:52.053Z,98047.27
2018-08-06T10:58:20.835Z,98051.89
2018-08-06T11:00:49.886Z,98047.82
2018-08-06T11:03:19.129Z,98042.14
2018-08-06T11:05:48.356Z,98040.95
2018-08-06T11:08:17.534Z,98040.14
2018-08-06T11:10:46.598Z,98046.13
2018-08-06T11:13:15.519Z,98032.85
2018-08-06T11:15:44.589Z,98034.76
2018-08-06T11:18:13.850Z,98034.89
2018-08-06T11:20:42.812Z,98035.03
2018-08-06T11:23:11.591Z,98027.23
2018-08-06T11:25:40.871Z,98026.06
2018-08-06T11:28:10.025Z,98020.16
2018-08-06T11:30:39.211Z,98016.13
2018-08-06T11:33:08.455Z,98020.75
2018-08-06T11:35:37.666Z,98009.47
2018-08-06T11:38:06.570Z,98008.27
2018-08-06T11:40:35.855Z,98003.95
2018-08-06T11:43:04.915Z,98007.36
2018-08-06T11:45:34.052Z,97996.58
2018-08-06T11:48:03.112Z,97998.52
2018-08-06T11:50:32.316Z,98006.89
2018-08-06T11:53:01.570Z,98001.92
2018-08-06T11:55:30.751Z,97997.66
2018-08-06T11:58:00.012Z,97994.97
2018-08-06T12:00:29.071Z,98000.92
2018-08-06T12:02:58.258Z,97999.03
2018-08-06T12:05:27.498Z,97997.92
2018-08-06T12:07:56.782Z,97999.02
2018-08-06T12:10:25.950Z,97997.63
2018-08-06T12:12:55.082Z,97985.06
2018-08-06T12:15:23.822Z,97985.62
2018-08-06T12:17:52.790Z,97990.31
2018-08-06T12:20:22.039Z,97976.55
2018-08-06T12:22:52.030Z,97969.25
2018-08-06T12:25:21.241Z,97970.41
2018-08-06T12:27:50.678Z,97971.14
2018-08-06T12:30:21.051Z,97968.73
2018-08-06T12:32:50.910Z,97965.00
2018-08-06T12:35:19.731Z,97953.84
2018-08-06T12:37:49.181Z,97949.98
2018-08-06T12:40:19.635Z,97951.56
2018-08-06T12:42:48.623Z,97948.88
2018-08-06T12:45:18.130Z,97939.21
2018-08-06T12:47:47.390Z,97931.11
2018-08-06T12:50:17.253Z,97942.99
2018-08-06T12:52:46.678Z,97934.60
2018-08-06T12:55:17.175Z,97928.79
2018-08-06T12:57:46.626Z,97925.03
2018-08-06T13:00:20.886Z,97923.16
2018-08-06T13:02:50.796Z,97915.67
2018-08-06T13:05:20.568Z,97920.61
2018-08-06T13:07:49.826Z,97928.58
2018-08-06T13:10:19.582Z,97917.14
2018-08-06T13:12:48.912Z,97914.23
2018-08-06T13:15:18.238Z,97917.18
2018-08-06T13:17:47.376Z,97914.88
2018-08-06T13:20:16.202Z,97912.66
2018-08-06T13:22:45.493Z,97908.98
2018-08-06T13:25:14.774Z,97915.27
2018-08-06T13:27:44.078Z,97912.86
2018-08-06T13:30:14.887Z,97921.31
2018-08-06T13:32:44.354Z,97908.70
2018-08-06T13:35:14.447Z,97919.38
2018-08-06T13:37:43.358Z,97909.73
2018-08-06T13:40:12.802Z,97910.31
2018-08-06T13:42:42.094Z,97906.64
2018-08-06T13:45:13.026Z,97904.26
2018-08-06T13:47:42.330Z,97896.16
2018-08-06T13:50:11.821Z,97907.73
2018-08-06T13:52:41.190Z,97903.69
2018-08-06T13:55:11.760Z,97901.53
2018-08-06T13:57:41.287Z,97900.90
2018-08-06T14:00:14.385Z,97892.23
2018-08-06T14:02:43.651Z,97895.05
2018-08-06T14:05:14.126Z,97891.23
2018-08-06T14:07:44.185Z,97890.88
2018-08-06T14:10:13.494Z,97887.58
2018-08-06T14:12:42.793Z,97895.23
2018-08-06T14:15:12.493Z,97886.00
2018-08-06T14:17:42.210Z,97886.23
2018-08-06T14:20:15.783Z,97881.69
2018-08-06T14:22:44.788Z,97878.19
2018-08-06T14:25:14.098Z,97885.84
2018-08-06T14:27:43.107Z,97882.20
2018-08-06T14:30:14.541Z,97875.60
2018-08-06T14:32:44.294Z,97883.11
2018-08-06T14:35:13.635Z,97884.98
2018-08-06T14:37:42.988Z,97886.34
2018-08-06T14:40:18.348Z,97874.87
2018-08-06T14:42:47.843Z,97877.50
2018-08-06T14:45:17.157Z,97875.52
2018-08-06T14:47:45.971Z,97870.27
2018-08-06T14:50:15.804Z,97875.40
2018-08-06T14:52:44.710Z,97870.66
2018-08-06T14:55:13.931Z,97876.14
2018-08-06T14:57:43.229Z,97871.97
2018-08-06T15:00:19.083Z,97867.16
2018-08-06T15:02:48.950Z,97866.65
2018-08-06T15:05:17.993Z,97862.95
2018-08-06T15:07:47.307Z,97868.80
2018-08-06T15:10:16.740Z,97870.83
2018-08-06T15:12:45.857Z,97868.19
2018-08-06T15:15:16.274Z,97857.75
2018-08-06T15:17:46.056Z,97859.85
2018-08-06T15:20:16.520Z,97853.63
2018-08-06T15:22:45.831Z,97850.83
2018-08-06T15:25:17.141Z,97856.97
2018-08-06T15:27:46.441Z,97856.38
2018-08-06T15:30:15.712Z,97836.80
2018-08-06T15:32:44.925Z,97848.90
2018-08-06T15:35:14.438Z,97852.08
2018-08-06T15:37:44.303Z,97852.84
2018-08-06T15:40:15.397Z,97847.17
2018-08-06T15:42:44.611Z,97838.75
2018-08-06T15:45:14.213Z,97852.78
2018-08-06T15:47:44.257Z,97835.39
2018-08-06T15:50:15.258Z,97850.23
2018-08-06T15:52:44.501Z,97850.91
2018-08-06T15:55:13.696Z,97856.00
2018-08-06T15:57:43.038Z,97846.33
2018-08-06T16:00:14.262Z,97855.95
2018-08-06T16:02:43.749Z,97849.39
2018-08-06T16:05:13.149Z,97854.12
2018-08-06T16:07:41.987Z,97854.59
2018-08-06T16:10:12.127Z,97856.14
2018-08-06T16:12:41.227Z,97858.06
2018-08-06T16:15:12.273Z,97859.92
2018-08-06T16:17:42.147Z,97858.80
2018-08-06T16:20:14.072Z,97856.63
2018-08-06T16:22:42.925Z,97861.86
2018-08-06T16:25:12.698Z,97860.02
2018-08-06T16:27:42.002Z,97859.45
2018-08-06T16:30:18.807Z,97859.22
2018-08-06T16:32:48.398Z,97862.02
2018-08-06T16:35:19.135Z,97865.13
2018-08-06T16:37:48.423Z,97859.76
2018-08-06T16:40:17.663Z,97860.47
2018-08-06T16:42:46.920Z,97867.24
2018-08-06T16:45:16.140Z,97863.72
2018-08-06T16:47:45.358Z,97864.89
2018-08-06T16:50:15.794Z,97868.96
2018-08-06T16:52:45.763Z,97867.28
2018-08-06T16:55:15.052Z,97866.62
2018-08-06T16:57:44.311Z,97868.30
2018-08-06T17:00:16.287Z,97864.42
2018-08-06T17:02:45.541Z,97864.57
2018-08-06T17:05:14.958Z,97866.58
2018-08-06T17:07:45.102Z,97869.63
2018-08-06T17:10:16.768Z,97870.80
2018-08-06T17:12:46.748Z,97870.45
2018-08-06T17:15:16.996Z,97875.48
2018-08-06T17:17:46.661Z,97872.05
2018-08-06T17:20:17.496Z,97875.58
2018-08-06T17:22:47.791Z,97872.28
2018-08-06T17:25:16.959Z,97876.83
2018-08-06T17:27:46.172Z,97877.40
2018-08-06T17:30:16.186Z,97874.27
2018-08-06T17:32:45.422Z,97871.74
2018-08-06T17:35:15.113Z,97880.00
2018-08-06T17:37:43.941Z,97875.48
2018-08-06T17:40:15.141Z,97876.64
2018-08-06T17:42:44.034Z,97875.66
2018-08-06T17:45:16.218Z,97877.06
2018-08-06T17:47:44.997Z,97878.16
2018-08-06T17:50:18.014Z,97875.63
2018-08-06T17:52:47.766Z,97884.83
2018-08-06T17:55:17.914Z,97888.38
2018-08-06T17:57:47.067Z,97888.72
2018-08-06T18:00:17.082Z,97889.73
2018-08-06T18:02:46.173Z,97890.19
2018-08-06T18:05:16.391Z,97889.81
2018-08-06T18:07:45.584Z,97897.79
2018-08-06T18:10:16.020Z,97899.14
2018-08-06T18:12:45.807Z,97895.21
2018-08-06T18:15:14.992Z,97896.08
2018-08-06T18:17:44.052Z,97900.52
2018-08-06T18:20:14.987Z,97901.27
2018-08-06T18:22:44.351Z,97905.96
2018-08-06T18:25:16.210Z,97905.86
2018-08-06T18:27:47.306Z,97915.97
2018-08-06T18:30:18.036Z,97913.62
2018-08-06T18:32:47.226Z,97911.35
2018-08-06T18:35:17.555Z,97913.34
2018-08-06T18:37:46.858Z,97919.40
2018-08-06T18:40:16.933Z,97926.13
2018-08-06T18:42:45.930Z,97921.81
2018-08-06T18:45:17.394Z,97924.18
2018-08-06T18:47:47.500Z,97928.61
2018-08-06T18:50:17.495Z,97927.84
2018-08-06T18:52:47.627Z,97938.52
2018-08-06T18:55:17.323Z,97944.89
2018-08-06T18:57:46.860Z,97949.78
2018-08-06T19:00:19.170Z,97946.17
2018-08-06T19:02:48.460Z,97953.47
2018-08-06T19:05:17.336Z,97944.16
2018-08-06T19:07:46.334Z,97948.45
2018-08-06T19:10:15.502Z,97950.81
2018-08-06T19:12:49.769Z,97949.24
2018-08-06T19:15:19.105Z,97951.59
2018-08-06T19:17:53.279Z,97947.30
2018-08-06T19:20:22.305Z,97950.48
2018-08-06T19:22:51.644Z,97946.86
2018-08-06T19:25:25.410Z,97954.60
2018-08-06T19:27:55.001Z,97948.20
2018-08-06T19:30:29.439Z,97945.73
2018-08-06T19:32:58.697Z,97953.94
2018-08-06T19:35:27.907Z,97946.37
2018-08-06T19:37:57.245Z,97952.39
2018-08-06T19:40:26.406Z,97946.47
2018-08-06T19:43:00.467Z,97948.45
2018-08-06T19:45:29.777Z,97942.42
2018-08-06T19:47:58.970Z,97942.67
2018-08-06T19:50:33.331Z,97944.93
2018-08-06T19:53:02.535Z,97941.75
2018-08-06T19:55:36.873Z,97942.73
2018-08-06T19:58:06.014Z,97949.65
2018-08-06T20:00:35.096Z,97952.31
2018-08-06T20:03:04.386Z,97955.03
2018-08-06T20:05:33.590Z,97955.55
2018-08-06T20:08:02.721Z,97958.64
2018-08-06T20:10:31.789Z,97960.97
2018-08-06T20:13:01.596Z,97962.00
2018-08-06T20:15:30.740Z,97959.53
2018-08-06T20:18:00.069Z,97960.50
2018-08-06T20:20:29.235Z,97966.75
2018-08-06T20:22:58.581Z,97962.55
2018-08-06T20:25:27.817Z,97962.31
2018-08-06T20:27:57.151Z,97967.14
2018-08-06T20:30:26.087Z,97966.59
2018-08-06T20:32:55.079Z,97969.83
2018-08-06T20:35:24.118Z,97967.75
2018-08-06T20:37:53.406Z,97963.56
2018-08-06T20:40:22.479Z,97968.94
2018-08-06T20:42:51.394Z,97972.08
2018-08-06T20:45:21.322Z,97968.73
2018-08-06T20:47:50.415Z,97969.61
2018-08-06T20:50:21.124Z,97967.63
2018-08-06T20:52:51.636Z,97964.33
2018-08-06T20:55:20.894Z,97971.78
2018-08-06T20:57:50.559Z,97967.73
2018-08-06T21:00:22.795Z,97976.91
2018-08-06T21:02:52.257Z,97975.69
2018-08-06T21:05:21.519Z,97980.97
2018-08-06T21:07:50.767Z,97982.02
2018-08-06T21:10:20.418Z,97987.20
2018-08-06T21:12:50.031Z,97984.73
2018-08-06T21:15:19.184Z,97992.16
2018-08-06T21:17:48.440Z,97987.13
2018-08-06T21:20:18.679Z,97989.61
2018-08-06T21:22:48.869Z,97989.05
2018-08-06T21:25:18.219Z,97993.23
2018-08-06T21:27:48.349Z,97992.80
2018-08-06T21:30:19.287Z,98001.23
2018-08-06T21:32:50.422Z,97994.34
2018-08-06T21:35:20.378Z,97992.74
2018-08-06T21:37:50.606Z,97990.53
2018-08-06T21:40:20.424Z,97992.27
2018-08-06T21:42:50.166Z,97991.50
2018-08-06T21:45:19.526Z,97987.56
2018-08-06T21:47:49.096Z,97990.39
2018-08-06T21:50:18.331Z,97991.72
2018-08-06T21:52:47.660Z,98004.59
2018-08-06T21:55:16.475Z,97998.17
2018-08-06T21:57:45.715Z,98003.72
2018-08-06T22:00:24.169Z,98006.55
2018-08-06T22:02:53.306Z,98004.45
2018-08-06T22:05:22.651Z,98008.12
2018-08-06T22:07:51.447Z,98007.16
2018-08-06T22:10:20.652Z,98002.42
2018-08-06T22:12:49.519Z,97999.88
2018-08-06T22:15:18.726Z,98002.27
2018-08-06T22:17:47.981Z,98002.86
2018-08-06T22:20:16.883Z,97997.95
2018-08-06T22:22:46.218Z,98004.37
2018-08-06T22:25:15.113Z,98000.35
2018-08-06T22:27:44.270Z,98000.73
2018-08-06T22:30:13.289Z,98000.62
2018-08-06T22:32:42.295Z,97994.37
2018-08-06T22:35:12.710Z,97991.92
2018-08-06T22:37:42.813Z,97992.39
2018-08-06T22:40:13.434Z,97986.86
2018-08-06T22:42:42.923Z,97984.16
2018-08-06T22:45:13.081Z,97975.83
2018-08-06T22:47:43.158Z,97983.27
2018-08-06T22:50:13.529Z,97982.49
2018-08-06T22:52:42.834Z,97974.24
2018-08-06T22:55:12.937Z,97977.80
2018-08-06T22:57:42.642Z,97972.81
2018-08-06T23:00:15.415Z,97977.65
2018-08-06T23:02:45.159Z,97977.36
2018-08-06T23:05:15.973Z,97977.83
2018-08-06T23:07:45.334Z,97974.66
2018-08-06T23:10:16.277Z,97975.63
2018-08-06T23:12:45.672Z,97977.83
2018-08-06T23:15:16.031Z,97979.68
2018-08-06T23:17:45.775Z,97983.50
2018-08-06T23:20:15.023Z,97979.80
2018-08-06T23:22:44.243Z,97977.34
2018-08-06T23:25:13.006Z,97976.19
2018-08-06T23:27:42.290Z,97975.71
2018-08-06T23:30:14.904Z,97966.69
2018-08-06T23:32:44.005Z,97968.38
2018-08-06T23:35:14.151Z,97971.31
2018-08-06T23:37:44.536Z,97973.37
2018-08-06T23:40:14.611Z,97976.94
2018-08-06T23:42:44.008Z,97975.38
2018-08-06T23:45:14.833Z,97983.75
2018-08-06T23:47:43.934Z,97986.34
2018-08-06T23:50:14.611Z,97983.14
2018-08-06T23:52:44.988Z,97983.14
2018-08-06T23:55:16.838Z,97983.14
2018-08-06T23:57:46.038Z,97979.61
